Time;durP1;ratioP1;P1;durP2;ratioP2;P2;SDS_P1;SDS_P2;PMS_P1;PMS_P2;Temp;Humidity;BMP_temperature;BMP_pressure;BME280_temperature;BME280_humidity;BME280_pressure;Samples;Min_cycle;Max_cycle;Signal;HPM_P1;HPM_P2
2021/12/28 00:00:44;;;;;;;7.80;5.00;;;9.90;99.90;;;;;;5028546;28;20034;-79
2021/12/28 00:03:10;;;;;;;7.22;4.15;;;9.80;99.90;;;;;;5028665;28;20029;-79
2021/12/28 00:05:35;;;;;;;10.30;4.75;;;9.80;99.90;;;;;;5034379;28;20083;-79
2021/12/28 00:08:02;;;;;;;11.77;5.18;;;9.80;99.90;;;;;;5031525;28;20022;-80
2021/12/28 00:10:27;;;;;;;11.45;4.93;;;9.70;99.90;;;;;;5026603;28;20070;-79
2021/12/28 00:12:54;;;;;;;7.22;4.50;;;9.80;99.90;;;;;;5025645;28;20029;-79
2021/12/28 00:18:01;;;;;;;7.75;3.72;;;9.80;99.90;;;;;;5027279;28;20021;-78
2021/12/28 00:20:39;;;;;;;16.55;4.93;;;9.90;99.90;;;;;;5029824;28;20067;-79
2021/12/28 00:23:08;;;;;;;7.55;3.72;;;9.90;99.90;;;;;;5028375;28;20512;-79
2021/12/28 00:25:34;;;;;;;9.25;4.68;;;9.80;99.90;;;;;;5026629;28;20055;-79
2021/12/28 00:28:01;;;;;;;8.55;4.13;;;9.70;99.90;;;;;;5026633;28;20119;-78
2021/12/28 00:30:26;;;;;;;8.38;4.30;;;9.70;99.90;;;;;;5028444;28;20041;-79
2021/12/28 00:32:53;;;;;;;7.03;3.70;;;9.70;99.90;;;;;;5028295;28;20491;-79
2021/12/28 00:35:29;;;;;;;8.57;3.72;;;9.80;99.90;;;;;;5030037;28;20017;-79
2021/12/28 00:37:55;;;;;;;8.40;3.65;;;9.90;99.90;;;;;;5027299;28;20083;-80
2021/12/28 00:40:21;;;;;;;7.50;3.13;;;10.00;99.90;;;;;;5028185;28;20033;-79
2021/12/28 00:42:47;;;;;;;5.72;3.58;;;9.90;99.90;;;;;;5026388;28;20021;-80
2021/12/28 00:45:13;;;;;;;7.13;3.88;;;9.80;99.90;;;;;;5028603;28;20073;-79
2021/12/28 00:47:39;;;;;;;6.13;3.55;;;9.80;99.90;;;;;;5029031;28;20025;-79
2021/12/28 00:50:07;;;;;;;9.07;4.28;;;9.80;99.90;;;;;;5027632;28;20116;-79
2021/12/28 00:52:32;;;;;;;8.25;4.00;;;9.90;99.90;;;;;;5028259;28;20494;-80
2021/12/28 00:54:58;;;;;;;7.35;4.00;;;9.90;99.90;;;;;;5028366;28;20036;-80
2021/12/28 00:57:24;;;;;;;8.23;4.50;;;9.80;99.90;;;;;;5029081;28;20026;-80
2021/12/28 00:59:49;;;;;;;5.78;3.40;;;9.90;99.90;;;;;;5030536;28;20121;-80
2021/12/28 01:02:15;;;;;;;7.18;4.32;;;9.80;99.90;;;;;;5028098;28;20503;-79
2021/12/28 01:04:41;;;;;;;9.85;4.35;;;9.80;99.90;;;;;;5028637;28;20044;-79
2021/12/28 01:07:07;;;;;;;8.63;4.82;;;9.80;99.90;;;;;;5028652;28;20030;-79
2021/12/28 01:09:33;;;;;;;10.30;5.28;;;9.70;99.90;;;;;;5027765;28;20558;-79
2021/12/28 01:12:00;;;;;;;11.68;5.10;;;9.80;99.90;;;;;;5028680;28;20013;-79
2021/12/28 01:14:27;;;;;;;8.20;4.30;;;9.90;99.90;;;;;;5033098;28;20025;-79
2021/12/28 01:16:53;;;;;;;15.48;5.30;;;9.90;99.90;;;;;;5033080;28;20211;-79
2021/12/28 01:19:19;;;;;;;10.05;5.18;;;9.80;99.90;;;;;;5032546;28;20489;-79
2021/12/28 01:21:45;;;;;;;10.60;5.07;;;9.70;99.90;;;;;;5033342;28;20017;-79
2021/12/28 01:24:10;;;;;;;9.07;5.20;;;9.80;99.90;;;;;;5032104;28;20022;-79
2021/12/28 01:26:37;;;;;;;13.32;5.25;;;9.80;99.90;;;;;;5032923;28;20529;-79
2021/12/28 01:29:03;;;;;;;9.60;4.95;;;9.80;99.90;;;;;;5030775;28;20030;-80
2021/12/28 01:31:29;;;;;;;10.07;5.53;;;9.80;99.90;;;;;;5032518;28;20259;-80
2021/12/28 01:33:55;;;;;;;9.82;5.63;;;9.80;99.90;;;;;;5031868;28;20557;-80
2021/12/28 01:36:21;;;;;;;12.10;4.82;;;9.80;99.90;;;;;;5032483;28;20060;-80
2021/12/28 01:38:47;;;;;;;9.85;5.40;;;9.80;99.90;;;;;;5033730;28;20029;-80
2021/12/28 01:41:13;;;;;;;9.15;5.35;;;9.70;99.90;;;;;;5031959;28;20037;-79
2021/12/28 01:43:40;;;;;;;9.45;5.00;;;9.70;99.90;;;;;;5031610;28;20040;-79
2021/12/28 01:46:07;;;;;;;9.73;5.07;;;9.70;99.90;;;;;;5031866;28;20037;-80
2021/12/28 01:48:35;;;;;;;12.60;5.50;;;9.70;99.90;;;;;;5028764;28;20028;-80
2021/12/28 01:51:15;;;;;;;12.20;5.47;;;9.70;99.90;;;;;;5017016;28;20022;-80
2021/12/28 01:53:41;;;;;;;11.75;5.38;;;9.80;99.90;;;;;;5024208;28;20026;-80
2021/12/28 01:56:20;;;;;;;11.45;5.70;;;9.80;99.90;;;;;;5018499;28;20053;-80
2021/12/28 01:58:45;;;;;;;11.90;5.50;;;9.80;99.90;;;;;;5017183;28;20028;-80
2021/12/28 02:01:12;;;;;;;10.52;5.57;;;9.80;99.90;;;;;;5017033;28;20465;-80
2021/12/28 02:03:40;;;;;;;6.97;4.55;;;9.70;99.90;;;;;;5017204;28;20092;-80
2021/12/28 02:06:06;;;;;;;10.07;5.03;;;9.70;99.90;;;;;;5014597;28;20022;-80
2021/12/28 02:08:32;;;;;;;8.50;4.85;;;9.70;99.90;;;;;;5030492;28;20024;-81
2021/12/28 02:10:58;;;;;;;10.55;5.85;;;9.80;99.90;;;;;;5020563;28;20026;-81
2021/12/28 02:13:25;;;;;;;9.77;5.10;;;9.80;99.90;;;;;;5017990;28;20026;-81
2021/12/28 02:15:52;;;;;;;8.63;4.93;;;9.80;99.90;;;;;;5016108;28;20018;-80
2021/12/28 02:18:20;;;;;;;8.05;5.30;;;9.70;99.90;;;;;;5031508;28;20238;-81
2021/12/28 02:20:47;;;;;;;10.70;5.68;;;9.70;99.90;;;;;;5029508;28;20104;-80
2021/12/28 02:23:13;;;;;;;7.65;4.63;;;9.60;99.90;;;;;;5016210;28;20038;-81
2021/12/28 02:25:39;;;;;;;10.93;5.72;;;9.60;99.90;;;;;;5015974;28;20037;-81
2021/12/28 02:28:07;;;;;;;6.68;4.53;;;9.70;99.90;;;;;;5017318;28;20030;-81
2021/12/28 02:30:35;;;;;;;7.85;4.93;;;9.70;99.90;;;;;;5029015;28;20304;-81
2021/12/28 02:33:01;;;;;;;8.77;5.55;;;9.70;99.90;;;;;;5029842;28;20029;-81
2021/12/28 02:35:27;;;;;;;7.97;5.18;;;9.70;99.90;;;;;;5027469;28;20613;-81
2021/12/28 02:37:54;;;;;;;7.68;4.60;;;9.70;99.90;;;;;;5020256;28;20112;-80
2021/12/28 02:40:29;;;;;;;10.73;5.55;;;9.60;99.90;;;;;;5016355;28;20054;-80
2021/12/28 02:42:57;;;;;;;7.97;5.00;;;9.60;99.90;;;;;;5013871;28;20029;-80
2021/12/28 02:45:29;;;;;;;9.27;4.88;;;9.70;99.90;;;;;;5011553;28;20041;-79
2021/12/28 02:47:55;;;;;;;10.77;4.85;;;9.60;99.90;;;;;;5014312;28;20025;-79
2021/12/28 02:50:26;;;;;;;11.70;5.35;;;9.80;99.90;;;;;;5025999;28;20025;-79
2021/12/28 02:52:52;;;;;;;11.75;5.38;;;9.70;99.90;;;;;;5022030;28;20032;-80
2021/12/28 02:55:22;;;;;;;9.18;4.95;;;9.60;99.90;;;;;;5026132;28;20026;-80
2021/12/28 02:58:18;;;;;;;9.77;5.40;;;9.70;99.90;;;;;;5013826;28;20066;-80
2021/12/28 03:00:49;;;;;;;5.55;4.32;;;9.70;99.90;;;;;;5025221;28;20091;-80
2021/12/28 03:03:19;;;;;;;10.38;4.50;;;9.70;99.90;;;;;;5026333;28;20101;-80
2021/12/28 03:05:48;;;;;;;7.78;3.97;;;9.80;99.90;;;;;;5014476;28;20084;-80
2021/12/28 03:08:17;;;;;;;7.20;3.70;;;9.90;99.90;;;;;;5016698;28;20033;-80
2021/12/28 03:10:43;;;;;;;5.93;4.03;;;9.90;99.90;;;;;;5004145;28;20026;-80
2021/12/28 03:13:14;;;;;;;6.05;3.88;;;9.90;99.90;;;;;;5017418;28;20121;-80
2021/12/28 03:15:40;;;;;;;6.43;4.10;;;9.90;99.90;;;;;;4998749;28;20072;-81
2021/12/28 03:18:06;;;;;;;6.95;3.63;;;9.90;99.90;;;;;;5012645;28;20107;-81
2021/12/28 03:20:32;;;;;;;7.93;4.30;;;9.90;99.90;;;;;;5015758;28;20518;-81
2021/12/28 03:22:57;;;;;;;6.97;3.60;;;9.90;99.90;;;;;;5016562;28;20030;-81
2021/12/28 03:25:23;;;;;;;5.05;3.63;;;9.90;99.90;;;;;;5016856;28;20037;-81
2021/12/28 03:27:49;;;;;;;6.63;3.70;;;9.80;99.90;;;;;;5011900;28;20828;-81
2021/12/28 03:30:16;;;;;;;6.65;3.60;;;9.70;99.90;;;;;;5027651;28;20120;-80
2021/12/28 03:32:43;;;;;;;5.65;3.25;;;9.80;99.90;;;;;;5029327;28;20069;-80
2021/12/28 03:35:12;;;;;;;7.40;3.42;;;9.80;99.90;;;;;;5000250;28;20026;-80
2021/12/28 03:37:38;;;;;;;4.72;3.17;;;9.80;99.90;;;;;;5008296;28;20034;-80
2021/12/28 03:40:07;;;;;;;9.35;4.20;;;9.70;99.90;;;;;;5026163;28;20535;-80
2021/12/28 03:42:33;;;;;;;5.22;3.30;;;9.70;99.90;;;;;;5013708;28;20044;-80
2021/12/28 03:44:59;;;;;;;8.20;4.00;;;9.80;99.90;;;;;;5027033;28;20434;-79
2021/12/28 03:47:25;;;;;;;4.82;3.38;;;9.80;99.90;;;;;;5013669;28;20026;-80
2021/12/28 03:49:51;;;;;;;8.77;3.40;;;9.80;99.90;;;;;;5020451;28;20399;-81
2021/12/28 03:52:16;;;;;;;5.07;3.28;;;9.90;99.90;;;;;;5023502;28;20373;-81
2021/12/28 03:54:42;;;;;;;6.78;3.47;;;9.80;99.90;;;;;;5013863;28;20506;-80
2021/12/28 03:57:08;;;;;;;7.35;3.15;;;9.90;99.90;;;;;;5012583;28;20505;-81
2021/12/28 03:59:34;;;;;;;4.72;3.17;;;9.90;99.90;;;;;;5026736;28;20626;-81
2021/12/28 04:02:00;;;;;;;6.15;2.95;;;10.00;99.90;;;;;;5017980;28;20026;-81
2021/12/28 04:04:25;;;;;;;4.65;2.83;;;10.00;99.90;;;;;;5016255;28;20502;-81
2021/12/28 04:06:51;;;;;;;3.95;2.33;;;10.10;99.90;;;;;;5029416;28;20550;-81
2021/12/28 04:09:34;;;;;;;4.68;2.00;;;10.20;99.90;;;;;;5011356;28;20415;-81
2021/12/28 04:11:59;;;;;;;4.78;2.33;;;10.50;99.90;;;;;;5026226;28;20112;-80
2021/12/28 04:14:25;;;;;;;8.73;2.10;;;10.60;99.90;;;;;;5025225;28;20133;-81
2021/12/28 04:16:51;;;;;;;4.80;1.45;;;10.70;99.90;;;;;;5018881;28;20030;-80
2021/12/28 04:19:16;;;;;;;6.85;1.65;;;10.80;99.90;;;;;;5015313;28;20013;-80
2021/12/28 04:21:42;;;;;;;2.80;1.40;;;10.90;99.90;;;;;;5025279;28;20430;-80
2021/12/28 04:24:08;;;;;;;4.47;1.30;;;11.00;99.90;;;;;;5025811;28;20101;-80
2021/12/28 04:26:33;;;;;;;4.95;1.55;;;11.00;99.90;;;;;;5026064;28;20414;-81
2021/12/28 04:28:59;;;;;;;5.22;1.73;;;10.90;99.90;;;;;;5017555;28;20021;-81
2021/12/28 04:31:25;;;;;;;2.58;1.10;;;10.90;99.90;;;;;;5020378;28;20040;-81
2021/12/28 04:33:51;;;;;;;5.57;1.63;;;11.00;99.90;;;;;;5024760;28;20029;-81
2021/12/28 04:36:19;;;;;;;5.50;1.13;;;11.00;99.90;;;;;;5024970;28;20561;-81
2021/12/28 04:38:44;;;;;;;4.93;1.40;;;11.00;99.90;;;;;;5015309;28;20535;-81
2021/12/28 04:41:11;;;;;;;3.05;1.23;;;11.00;99.90;;;;;;5013634;28;20145;-81
2021/12/28 04:43:37;;;;;;;2.95;1.15;;;10.90;99.90;;;;;;5014689;28;20588;-80
2021/12/28 04:46:04;;;;;;;3.20;0.93;;;10.90;99.90;;;;;;5019670;28;20040;-81
2021/12/28 04:48:30;;;;;;;3.05;1.25;;;10.90;99.90;;;;;;5025535;28;20145;-81
2021/12/28 04:50:56;;;;;;;5.00;1.50;;;10.90;99.90;;;;;;5027642;28;20109;-81
2021/12/28 04:53:22;;;;;;;4.35;1.48;;;10.90;99.90;;;;;;5024399;28;20438;-81
2021/12/28 04:55:48;;;;;;;8.00;1.30;;;10.90;99.90;;;;;;5020500;28;20033;-81
2021/12/28 04:58:15;;;;;;;5.10;1.27;;;10.90;99.90;;;;;;5023502;28;20099;-81
2021/12/28 05:00:42;;;;;;;3.67;1.42;;;10.90;99.90;;;;;;5012802;28;20113;-81
2021/12/28 05:03:09;;;;;;;3.10;1.42;;;11.00;99.90;;;;;;5010841;28;20088;-81
2021/12/28 05:05:35;;;;;;;4.50;2.05;;;11.00;99.90;;;;;;5030491;28;20029;-81
2021/12/28 05:08:04;;;;;;;3.03;1.27;;;11.00;99.90;;;;;;5022445;28;20053;-81
2021/12/28 05:10:30;;;;;;;4.53;1.38;;;11.10;99.90;;;;;;5021124;28;20491;-80
2021/12/28 05:12:55;;;;;;;1.50;1.02;;;11.10;99.90;;;;;;5014828;28;20022;-80
2021/12/28 05:15:21;;;;;;;2.97;1.20;;;11.10;99.90;;;;;;5026467;28;20030;-81
2021/12/28 05:17:47;;;;;;;4.80;1.77;;;11.10;99.90;;;;;;5025845;28;20051;-81
2021/12/28 05:20:13;;;;;;;1.55;1.35;;;11.10;99.90;;;;;;5023512;28;20021;-80
2021/12/28 05:22:39;;;;;;;4.13;1.10;;;11.00;99.90;;;;;;5027631;28;20025;-80
2021/12/28 05:25:06;;;;;;;3.45;1.42;;;11.10;99.90;;;;;;5024096;28;20037;-81
2021/12/28 05:27:32;;;;;;;2.95;0.85;;;11.10;99.90;;;;;;5011651;28;20068;-81
2021/12/28 05:29:58;;;;;;;2.88;0.90;;;11.10;99.90;;;;;;5024411;28;20041;-81
2021/12/28 05:32:23;;;;;;;4.45;1.17;;;11.00;99.90;;;;;;5026075;28;20022;-81
2021/12/28 05:34:49;;;;;;;5.20;1.73;;;11.00;99.90;;;;;;5018846;28;20506;-81
2021/12/28 05:37:16;;;;;;;4.13;1.20;;;11.00;99.90;;;;;;5014226;28;20028;-81
2021/12/28 05:39:41;;;;;;;4.50;0.93;;;11.00;99.90;;;;;;5012510;28;20029;-81
2021/12/28 05:42:07;;;;;;;3.33;1.15;;;11.00;99.90;;;;;;5009826;28;20018;-81
2021/12/28 05:44:33;;;;;;;3.63;1.20;;;11.10;99.90;;;;;;5014166;28;20053;-81
2021/12/28 05:46:59;;;;;;;5.40;1.70;;;11.10;99.90;;;;;;5020380;28;20018;-81
2021/12/28 05:49:25;;;;;;;2.60;1.00;;;11.00;99.90;;;;;;5023520;28;20022;-80
2021/12/28 05:51:51;;;;;;;2.80;0.85;;;11.00;99.90;;;;;;5013943;28;20033;-80
2021/12/28 05:54:17;;;;;;;4.40;2.08;;;11.00;99.90;;;;;;5010631;28;20033;-81
2021/12/28 05:56:44;;;;;;;2.42;0.95;;;10.90;99.90;;;;;;5025583;28;20029;-81
2021/12/28 05:59:10;;;;;;;6.45;1.10;;;10.90;99.90;;;;;;5013221;28;20026;-81
2021/12/28 06:01:35;;;;;;;4.22;1.38;;;11.00;99.90;;;;;;5023123;28;20469;-80
2021/12/28 06:04:02;;;;;;;4.40;1.50;;;11.00;99.90;;;;;;5026149;28;20084;-79
2021/12/28 06:06:28;;;;;;;4.28;1.50;;;11.10;99.90;;;;;;5029491;28;20033;-80
2021/12/28 06:08:53;;;;;;;5.90;1.73;;;11.30;99.90;;;;;;5013058;28;20361;-80
2021/12/28 06:11:19;;;;;;;8.15;1.73;;;11.40;99.90;;;;;;5018333;28;20041;-80
2021/12/28 06:13:45;;;;;;;8.27;2.05;;;11.20;99.90;;;;;;5018213;28;20476;-80
2021/12/28 06:16:11;;;;;;;5.40;1.50;;;11.20;99.90;;;;;;5019192;28;20029;-81
2021/12/28 06:18:37;;;;;;;3.58;1.38;;;11.20;99.90;;;;;;5014420;28;20021;-81
2021/12/28 06:21:04;;;;;;;5.18;1.52;;;11.30;99.90;;;;;;5028167;28;20026;-81
2021/12/28 06:23:30;;;;;;;8.45;1.88;;;11.20;99.90;;;;;;5027929;28;20029;-81
2021/12/28 06:25:56;;;;;;;4.55;1.40;;;11.20;99.90;;;;;;5020828;28;20121;-80
2021/12/28 06:28:22;;;;;;;4.10;1.13;;;11.20;99.90;;;;;;5018100;28;20109;-80
2021/12/28 06:30:48;;;;;;;3.95;1.60;;;11.30;99.90;;;;;;5032432;28;20032;-80
2021/12/28 06:33:14;;;;;;;4.28;0.85;;;11.30;99.90;;;;;;5029550;28;20091;-80
2021/12/28 06:35:39;;;;;;;4.82;1.27;;;11.20;99.90;;;;;;5017204;28;20029;-80
2021/12/28 06:38:05;;;;;;;6.03;1.48;;;11.30;99.90;;;;;;5022900;28;20075;-80
2021/12/28 06:40:31;;;;;;;2.45;1.10;;;11.30;99.90;;;;;;5023807;28;20419;-81
2021/12/28 06:42:57;;;;;;;5.90;1.38;;;11.30;99.90;;;;;;5013925;28;20053;-81
2021/12/28 06:45:23;;;;;;;3.70;1.15;;;11.40;99.90;;;;;;5029498;28;20516;-79
2021/12/28 06:47:49;;;;;;;5.30;2.00;;;11.50;99.90;;;;;;5017308;28;20465;-80
2021/12/28 06:50:15;;;;;;;6.57;1.42;;;11.40;99.90;;;;;;5024084;28;20072;-79
2021/12/28 06:52:41;;;;;;;8.15;3.17;;;11.30;99.90;;;;;;5029785;28;20030;-79
2021/12/28 06:55:08;;;;;;;7.10;1.50;;;11.30;99.90;;;;;;5026579;28;20032;-79
2021/12/28 06:57:34;;;;;;;12.48;1.92;;;11.30;99.90;;;;;;5013435;28;20047;-79
2021/12/28 07:00:00;;;;;;;8.73;1.75;;;11.30;99.90;;;;;;5011952;28;20034;-79
2021/12/28 07:02:26;;;;;;;4.40;1.40;;;11.20;99.90;;;;;;5024222;28;20025;-79
2021/12/28 07:04:52;;;;;;;7.68;1.52;;;11.20;99.90;;;;;;5013109;28;20041;-80
2021/12/28 07:07:19;;;;;;;9.00;1.83;;;11.20;99.90;;;;;;5016725;28;20164;-80
2021/12/28 07:09:45;;;;;;;3.75;1.67;;;11.20;99.90;;;;;;5014265;28;20041;-80
2021/12/28 07:12:11;;;;;;;7.10;1.50;;;11.20;99.90;;;;;;5011894;28;20025;-80
2021/12/28 07:14:37;;;;;;;5.78;1.48;;;11.20;99.90;;;;;;5016894;28;20017;-80
2021/12/28 07:17:03;;;;;;;5.90;2.30;;;11.20;99.90;;;;;;5015162;28;20373;-80
2021/12/28 07:19:29;;;;;;;6.15;2.40;;;11.10;99.90;;;;;;5018557;28;20027;-80
2021/12/28 07:21:55;;;;;;;5.28;1.55;;;11.10;99.90;;;;;;5024193;28;20414;-81
2021/12/28 07:24:21;;;;;;;4.57;1.58;;;11.10;99.90;;;;;;5028546;28;20034;-81
2021/12/28 07:26:47;;;;;;;3.90;1.45;;;11.10;99.90;;;;;;5027415;28;20372;-81
2021/12/28 07:29:13;;;;;;;3.00;1.27;;;11.00;99.90;;;;;;5016822;28;20056;-81
2021/12/28 07:31:40;;;;;;;13.68;2.03;;;11.10;99.90;;;;;;5019291;28;20026;-81
2021/12/28 07:34:06;;;;;;;5.13;1.52;;;11.10;99.90;;;;;;5024575;28;20549;-81
2021/12/28 07:36:32;;;;;;;5.35;1.70;;;11.20;99.90;;;;;;5012981;28;20025;-81
2021/12/28 07:38:58;;;;;;;6.85;1.95;;;11.10;99.90;;;;;;5025911;28;20026;-81
2021/12/28 07:41:24;;;;;;;4.00;1.60;;;11.10;99.90;;;;;;5018171;28;20034;-80
2021/12/28 07:43:50;;;;;;;5.45;1.30;;;11.10;99.90;;;;;;5019846;28;20105;-80
2021/12/28 07:46:16;;;;;;;6.18;1.95;;;11.20;99.90;;;;;;5024013;28;20037;-80
2021/12/28 07:48:42;;;;;;;3.75;1.00;;;11.20;99.90;;;;;;5032010;28;20091;-81
2021/12/28 07:51:08;;;;;;;2.78;0.95;;;11.20;99.90;;;;;;5025456;28;20033;-81
2021/12/28 07:53:35;;;;;;;4.50;1.50;;;11.20;99.90;;;;;;5026839;28;20411;-81
2021/12/28 07:56:02;;;;;;;3.83;1.00;;;11.20;99.90;;;;;;5028525;28;20032;-81
2021/12/28 07:58:28;;;;;;;4.43;1.77;;;11.30;99.90;;;;;;5023991;28;20029;-81
2021/12/28 08:00:55;;;;;;;4.70;1.38;;;11.30;99.90;;;;;;5021639;28;20018;-81
2021/12/28 08:03:22;;;;;;;5.90;2.42;;;11.40;99.90;;;;;;5029320;28;20057;-81
2021/12/28 08:05:49;;;;;;;6.60;1.95;;;11.50;99.90;;;;;;5029031;28;20048;-81
2021/12/28 08:08:15;;;;;;;6.40;1.30;;;11.50;99.90;;;;;;5027732;28;20028;-81
2021/12/28 08:10:41;;;;;;;6.68;1.65;;;11.60;99.90;;;;;;5020036;28;20026;-81
2021/12/28 08:13:07;;;;;;;6.00;1.75;;;11.70;99.90;;;;;;5015018;28;20384;-80
2021/12/28 08:15:33;;;;;;;5.90;1.45;;;11.70;99.90;;;;;;5015084;28;20045;-80
2021/12/28 08:17:59;;;;;;;4.32;1.00;;;11.80;99.90;;;;;;5010307;28;20026;-79
2021/12/28 08:20:25;;;;;;;5.13;1.40;;;11.70;99.90;;;;;;5027466;28;20079;-80
2021/12/28 08:22:50;;;;;;;6.63;2.03;;;11.80;99.90;;;;;;5021442;28;20048;-80
2021/12/28 08:25:19;;;;;;;6.60;1.45;;;11.90;99.90;;;;;;5025025;28;20041;-79
2021/12/28 08:27:46;;;;;;;6.68;2.03;;;12.00;99.90;;;;;;5025128;28;20068;-80
2021/12/28 08:30:13;;;;;;;6.85;1.65;;;12.00;99.90;;;;;;5027272;28;20037;-79
2021/12/28 08:32:39;;;;;;;12.80;2.22;;;12.00;99.90;;;;;;5026521;28;20148;-80
2021/12/28 08:35:06;;;;;;;8.63;1.83;;;12.00;99.90;;;;;;5024906;28;20024;-80
2021/12/28 08:37:33;;;;;;;8.68;1.77;;;11.90;99.90;;;;;;5024505;28;20025;-81
2021/12/28 08:39:59;;;;;;;7.47;2.38;;;11.90;99.90;;;;;;5024414;28;20033;-81
2021/12/28 08:42:25;;;;;;;11.82;1.95;;;11.90;99.90;;;;;;5026624;28;20116;-82
2021/12/28 08:44:51;;;;;;;7.00;1.85;;;11.90;99.90;;;;;;5025476;28;20124;-79
2021/12/28 08:47:17;;;;;;;5.53;1.58;;;11.90;99.90;;;;;;5022262;28;20120;-81
2021/12/28 08:49:43;;;;;;;8.52;1.70;;;11.90;99.90;;;;;;5021745;28;20028;-81
2021/12/28 08:52:09;;;;;;;5.05;1.83;;;11.90;99.90;;;;;;5023486;28;20403;-77
2021/12/28 08:54:35;;;;;;;5.40;1.63;;;11.90;99.90;;;;;;5025413;28;20434;-78
2021/12/28 08:57:01;;;;;;;3.75;1.38;;;11.90;99.90;;;;;;5026774;28;20037;-77
2021/12/28 08:59:27;;;;;;;5.53;1.88;;;12.00;99.90;;;;;;5021826;28;20026;-78
2021/12/28 09:01:55;;;;;;;6.75;1.95;;;12.00;99.90;;;;;;5021241;28;20036;-78
2021/12/28 09:04:21;;;;;;;5.07;1.70;;;12.00;99.90;;;;;;5021386;28;20026;-77
2021/12/28 09:06:47;;;;;;;4.80;1.08;;;12.00;99.90;;;;;;5025000;28;20025;-78
2021/12/28 09:09:13;;;;;;;6.03;1.52;;;12.00;99.90;;;;;;5015503;28;20040;-79
2021/12/28 09:11:40;;;;;;;3.78;1.65;;;12.00;99.90;;;;;;5026765;28;20025;-76
2021/12/28 09:14:06;;;;;;;4.70;1.33;;;12.10;99.90;;;;;;5023873;28;20025;-79
2021/12/28 09:16:32;;;;;;;7.68;2.08;;;12.10;99.90;;;;;;5023347;28;20399;-79
2021/12/28 09:18:58;;;;;;;5.55;1.70;;;12.10;99.90;;;;;;5025822;28;20152;-79
2021/12/28 09:21:24;;;;;;;6.28;2.33;;;12.20;99.90;;;;;;5026417;28;20348;-79
2021/12/28 09:23:49;;;;;;;4.75;1.75;;;12.20;99.90;;;;;;5029010;28;20077;-79
2021/12/28 09:26:15;;;;;;;7.55;2.22;;;12.20;99.90;;;;;;5024857;28;20524;-79
2021/12/28 09:28:41;;;;;;;5.53;2.13;;;12.20;99.90;;;;;;5026060;28;20402;-79
2021/12/28 09:31:07;;;;;;;8.63;2.30;;;12.30;99.90;;;;;;5024422;28;20407;-79
2021/12/28 09:33:32;;;;;;;6.20;1.67;;;12.30;99.90;;;;;;5022771;28;20049;-82
2021/12/28 09:36:00;;;;;;;6.65;1.73;;;12.40;99.90;;;;;;5028408;28;20037;-82
2021/12/28 09:38:26;;;;;;;9.75;2.67;;;12.50;99.90;;;;;;5031244;28;20025;-82
2021/12/28 09:40:52;;;;;;;11.63;3.40;;;12.60;99.90;;;;;;5027447;28;20035;-82
2021/12/28 09:43:19;;;;;;;7.82;2.22;;;12.70;99.90;;;;;;5024558;28;20097;-83
2021/12/28 09:45:45;;;;;;;6.00;1.90;;;12.80;99.90;;;;;;5026957;28;20148;-82
2021/12/28 09:48:11;;;;;;;6.53;2.55;;;12.90;99.90;;;;;;5019179;28;20029;-82
2021/12/28 09:50:39;;;;;;;6.95;1.90;;;13.00;99.90;;;;;;5023687;28;20101;-81
2021/12/28 09:53:08;;;;;;;5.10;2.30;;;13.10;99.90;;;;;;5023773;28;20041;-82
2021/12/28 09:55:34;;;;;;;7.50;2.15;;;13.30;99.90;;;;;;5017767;28;20029;-83
2021/12/28 09:58:01;;;;;;;14.18;2.92;;;13.30;99.90;;;;;;5028270;28;20025;-82
2021/12/28 10:00:27;;;;;;;8.43;2.70;;;13.20;99.90;;;;;;5013995;28;20037;-83
2021/12/28 10:02:53;;;;;;;9.50;1.58;;;13.20;99.90;;;;;;5027312;28;20025;-82
2021/12/28 10:05:23;;;;;;;10.68;2.30;;;13.20;99.90;;;;;;5028558;28;20068;-83
2021/12/28 10:07:56;;;;;;;4.95;1.80;;;13.30;99.90;;;;;;5024283;28;20506;-82
2021/12/28 10:10:27;;;;;;;12.25;3.45;;;13.30;99.90;;;;;;5026150;28;20076;-82
2021/12/28 10:13:00;;;;;;;7.63;2.15;;;13.30;99.90;;;;;;5025101;28;20040;-83
2021/12/28 10:15:32;;;;;;;10.57;2.58;;;13.30;99.90;;;;;;5012141;28;20113;-82
2021/12/28 10:18:01;;;;;;;13.55;2.55;;;13.30;99.90;;;;;;5032033;28;20018;-83
2021/12/28 10:20:37;;;;;;;5.38;1.77;;;13.40;99.90;;;;;;5027900;28;20037;-82
2021/12/28 10:23:09;;;;;;;7.07;1.92;;;13.60;99.90;;;;;;5026116;28;20517;-82
2021/12/28 10:25:48;;;;;;;9.43;2.85;;;13.80;99.90;;;;;;5025212;28;20108;-78
2021/12/28 10:28:19;;;;;;;7.88;2.10;;;13.90;99.90;;;;;;5027369;28;20033;-80
2021/12/28 10:30:51;;;;;;;8.63;2.60;;;14.00;99.90;;;;;;5028295;28;20037;-80
2021/12/28 10:33:20;;;;;;;10.85;2.90;;;13.90;99.90;;;;;;5029044;28;20518;-81
2021/12/28 10:36:08;;;;;;;6.60;2.30;;;13.80;99.90;;;;;;5028942;28;20064;-79
2021/12/28 10:38:39;;;;;;;3.42;1.52;;;13.90;99.90;;;;;;5027230;28;20030;-77
2021/12/28 10:41:10;;;;;;;8.98;2.35;;;13.80;99.90;;;;;;5023472;28;20306;-81
2021/12/28 10:43:39;;;;;;;8.05;2.10;;;13.90;99.90;;;;;;5028325;28;20317;-78
2021/12/28 10:46:14;;;;;;;5.97;1.90;;;13.90;99.90;;;;;;5027797;28;20033;-77
2021/12/28 10:48:46;;;;;;;8.57;3.03;;;14.00;99.90;;;;;;5024721;28;20021;-78
2021/12/28 10:51:23;;;;;;;8.55;2.58;;;14.00;99.90;;;;;;5024955;28;20026;-78
2021/12/28 10:56:36;;;;;;;21.08;7.32;;;13.90;99.90;;;;;;5026749;28;20021;-78
2021/12/28 10:59:04;;;;;;;16.33;6.90;;;13.80;99.90;;;;;;5023389;28;20037;-78
2021/12/28 11:01:32;;;;;;;8.85;3.80;;;13.70;99.90;;;;;;5026062;28;20033;-78
2021/12/28 11:04:04;;;;;;;9.80;2.80;;;13.50;99.90;;;;;;5026658;28;20033;-78
2021/12/28 11:06:32;;;;;;;8.65;2.20;;;13.40;99.90;;;;;;5024861;28;20179;-78
2021/12/28 11:09:05;;;;;;;10.23;3.08;;;13.20;99.90;;;;;;5027309;28;20029;-78
2021/12/28 11:11:31;;;;;;;11.00;2.50;;;13.10;99.90;;;;;;5023867;28;20120;-77
2021/12/28 11:14:01;;;;;;;7.55;2.70;;;13.00;99.90;;;;;;5039548;28;20534;-77
2021/12/28 11:16:28;;;;;;;7.80;3.15;;;13.00;99.90;;;;;;5025310;28;20022;-78
2021/12/28 11:19:00;;;;;;;12.68;3.47;;;12.90;99.90;;;;;;5016130;28;20104;-77
2021/12/28 11:21:39;;;;;;;15.02;4.00;;;12.90;99.90;;;;;;5020841;28;20029;-77
2021/12/28 11:24:14;;;;;;;7.47;5.20;;;12.90;99.90;;;;;;5022604;28;21926;-77
2021/12/28 11:26:53;;;;;;;11.55;4.82;;;12.90;99.90;;;;;;5026769;28;20140;-77
2021/12/28 11:29:23;;;;;;;6.60;4.53;;;12.90;99.90;;;;;;5021350;28;20048;-77
2021/12/28 11:31:54;;;;;;;11.65;3.83;;;12.90;99.90;;;;;;5023226;28;20025;-77
2021/12/28 11:34:24;;;;;;;10.32;3.70;;;13.00;99.90;;;;;;5024563;28;20079;-76
2021/12/28 11:36:57;;;;;;;7.72;3.00;;;12.90;99.90;;;;;;5021908;28;20499;-77
2021/12/28 11:39:26;;;;;;;11.80;4.55;;;13.00;99.90;;;;;;5024778;28;20044;-77
2021/12/28 11:41:53;;;;;;;7.85;3.40;;;13.00;99.90;;;;;;5025811;28;20231;-77
2021/12/28 11:44:21;;;;;;;10.25;3.60;;;12.90;99.90;;;;;;5026524;28;20076;-77
2021/12/28 11:46:48;;;;;;;10.57;5.25;;;12.80;99.90;;;;;;5023762;28;20033;-77
2021/12/28 11:49:15;;;;;;;7.78;4.43;;;12.80;99.90;;;;;;5019076;28;20037;-77
2021/12/28 11:51:43;;;;;;;10.98;4.40;;;12.80;99.90;;;;;;5022530;28;20520;-77
2021/12/28 11:54:11;;;;;;;12.68;4.18;;;12.80;99.90;;;;;;5017992;28;20029;-77
2021/12/28 11:56:45;;;;;;;8.27;2.83;;;12.70;99.90;;;;;;5027655;28;20054;-77
2021/12/28 11:59:23;;;;;;;10.20;3.13;;;12.70;99.90;;;;;;5021049;28;20025;-77
2021/12/28 12:01:52;;;;;;;8.60;2.38;;;12.70;99.90;;;;;;5022572;28;20025;-77
2021/12/28 12:04:51;;;;;;;14.68;4.07;;;12.70;99.90;;;;;;5024808;28;20033;-74
2021/12/28 12:07:24;;;;;;;11.27;3.33;;;12.80;99.90;;;;;;5016394;28;20045;-75
2021/12/28 12:09:50;;;;;;;9.50;3.65;;;12.80;99.90;;;;;;5023060;28;20041;-77
2021/12/28 12:12:20;;;;;;;11.05;3.53;;;12.80;99.90;;;;;;5024809;28;20030;-77
2021/12/28 12:14:52;;;;;;;15.25;4.43;;;12.70;99.90;;;;;;5027396;28;20057;-75
2021/12/28 12:17:43;;;;;;;13.27;3.42;;;12.70;99.90;;;;;;5026556;28;20328;-77
2021/12/28 12:20:23;;;;;;;9.23;2.60;;;12.70;99.90;;;;;;5022593;28;20033;-77
2021/12/28 12:23:07;;;;;;;8.80;3.35;;;12.70;99.90;;;;;;5017372;28;20065;-76
2021/12/28 12:25:58;;;;;;;10.02;2.88;;;12.60;99.90;;;;;;5021175;28;20040;-74
2021/12/28 12:28:46;;;;;;;12.40;2.90;;;12.60;99.90;;;;;;5023544;28;20479;-76
2021/12/28 12:31:25;;;;;;;13.32;2.72;;;12.60;99.90;;;;;;5021444;28;20041;-76
2021/12/28 12:33:51;;;;;;;6.10;2.03;;;12.60;99.90;;;;;;5022981;28;20029;-74
2021/12/28 12:36:21;;;;;;;7.93;2.55;;;12.50;99.90;;;;;;5025327;28;20458;-77
2021/12/28 12:38:48;;;;;;;14.15;4.15;;;12.60;99.90;;;;;;5024026;28;20033;-77
2021/12/28 12:41:20;;;;;;;17.92;9.52;;;12.50;99.90;;;;;;5024898;28;20047;-77
2021/12/28 12:43:57;;;;;;;21.75;10.50;;;12.60;99.90;;;;;;5023377;28;20025;-77
2021/12/28 12:46:38;;;;;;;33.40;16.67;;;12.60;99.90;;;;;;5024941;28;20083;-77
2021/12/28 12:49:10;;;;;;;25.55;14.38;;;12.70;99.90;;;;;;5025811;28;20025;-77
2021/12/28 12:51:43;;;;;;;26.55;12.90;;;12.70;99.90;;;;;;5024014;28;20057;-77
2021/12/28 12:54:22;;;;;;;20.73;9.70;;;12.70;99.90;;;;;;5024483;28;20017;-77
2021/12/28 12:56:50;;;;;;;21.80;10.57;;;12.70;99.90;;;;;;5024074;28;20561;-77